sensor_id;sensor_type;location;lat;lon;timestamp;temperature;humidity
18240;DHT22;9244;50.828;4.718;2022-08-01T00:00:33;20.10;99.90
18240;DHT22;9244;50.828;4.718;2022-08-01T00:02:59;20.00;99.90
18240;DHT22;9244;50.828;4.718;2022-08-01T00:05:24;20.00;99.90
18240;DHT22;9244;50.828;4.718;2022-08-01T00:07:50;19.90;99.90
18240;DHT22;9244;50.828;4.718;2022-08-01T00:10:17;20.00;99.90
18240;DHT22;9244;50.828;4.718;2022-08-01T00:12:44;20.00;99.90
18240;DHT22;9244;50.828;4.718;2022-08-01T00:15:11;19.90;99.90
18240;DHT22;9244;50.828;4.718;2022-08-01T00:17:38;19.90;99.90
18240;DHT22;9244;50.828;4.718;2022-08-01T00:20:06;20.00;99.90
18240;DHT22;9244;50.828;4.718;2022-08-01T00:22:32;19.90;99.90
18240;DHT22;9244;50.828;4.718;2022-08-01T00:24:59;19.80;99.90
18240;DHT22;9244;50.828;4.718;2022-08-01T00:27:24;19.90;99.90
18240;DHT22;9244;50.828;4.718;2022-08-01T00:29:50;20.00;99.90
18240;DHT22;9244;50.828;4.718;2022-08-01T00:32:16;19.90;99.90
18240;DHT22;9244;50.828;4.718;2022-08-01T00:34:41;19.90;99.90
18240;DHT22;9244;50.828;4.718;2022-08-01T00:37:07;19.80;99.90
18240;DHT22;9244;50.828;4.718;2022-08-01T00:39:33;19.80;99.90
18240;DHT22;9244;50.828;4.718;2022-08-01T00:41:59;19.80;99.90
18240;DHT22;9244;50.828;4.718;2022-08-01T00:44:26;19.80;99.90
18240;DHT22;9244;50.828;4.718;2022-08-01T00:46:52;19.70;99.90
18240;DHT22;9244;50.828;4.718;2022-08-01T00:49:18;19.70;99.90
18240;DHT22;9244;50.828;4.718;2022-08-01T00:51:44;19.70;99.90
18240;DHT22;9244;50.828;4.718;2022-08-01T00:54:09;19.70;99.90
18240;DHT22;9244;50.828;4.718;2022-08-01T00:56:35;19.80;99.90
18240;DHT22;9244;50.828;4.718;2022-08-01T00:59:03;19.80;99.90
18240;DHT22;9244;50.828;4.718;2022-08-01T01:01:29;19.70;99.90
18240;DHT22;9244;50.828;4.718;2022-08-01T01:03:54;19.80;99.90
18240;DHT22;9244;50.828;4.718;2022-08-01T01:12:01;19.70;99.90
18240;DHT22;9244;50.828;4.718;2022-08-01T01:17:32;19.60;99.90
18240;DHT22;9244;50.828;4.718;2022-08-01T01:19:59;19.50;99.90
18240;DHT22;9244;50.828;4.718;2022-08-01T01:30:51;19.50;99.90
18240;DHT22;9244;50.828;4.718;2022-08-01T01:33:19;19.50;99.90
18240;DHT22;9244;50.828;4.718;2022-08-01T01:35:48;19.40;99.90
18240;DHT22;9244;50.828;4.718;2022-08-01T01:38:29;19.40;99.90
18240;DHT22;9244;50.828;4.718;2022-08-01T01:40:56;19.50;99.90
18240;DHT22;9244;50.828;4.718;2022-08-01T01:43:23;19.50;99.90
18240;DHT22;9244;50.828;4.718;2022-08-01T01:45:51;19.30;99.90
18240;DHT22;9244;50.828;4.718;2022-08-01T01:48:19;19.20;99.90
18240;DHT22;9244;50.828;4.718;2022-08-01T01:50:47;19.30;99.90
18240;DHT22;9244;50.828;4.718;2022-08-01T01:53:15;19.40;99.90
18240;DHT22;9244;50.828;4.718;2022-08-01T01:55:43;19.40;99.90
18240;DHT22;9244;50.828;4.718;2022-08-01T01:58:12;19.50;99.90
18240;DHT22;9244;50.828;4.718;2022-08-01T02:00:40;19.60;99.90
18240;DHT22;9244;50.828;4.718;2022-08-01T02:03:11;19.50;99.90
18240;DHT22;9244;50.828;4.718;2022-08-01T02:05:38;19.50;99.90
18240;DHT22;9244;50.828;4.718;2022-08-01T02:08:06;19.50;99.90
18240;DHT22;9244;50.828;4.718;2022-08-01T02:10:34;19.50;99.90
18240;DHT22;9244;50.828;4.718;2022-08-01T02:13:03;19.40;99.90
18240;DHT22;9244;50.828;4.718;2022-08-01T02:15:31;19.30;99.90
18240;DHT22;9244;50.828;4.718;2022-08-01T02:17:59;19.30;99.90
18240;DHT22;9244;50.828;4.718;2022-08-01T02:20:29;19.30;99.90
18240;DHT22;9244;50.828;4.718;2022-08-01T02:23:06;19.30;99.90
18240;DHT22;9244;50.828;4.718;2022-08-01T02:25:42;19.30;99.90
18240;DHT22;9244;50.828;4.718;2022-08-01T02:28:17;19.50;99.90
18240;DHT22;9244;50.828;4.718;2022-08-01T02:30:47;19.40;99.90
18240;DHT22;9244;50.828;4.718;2022-08-01T02:33:19;19.40;99.90
18240;DHT22;9244;50.828;4.718;2022-08-01T02:35:50;19.40;99.90
18240;DHT22;9244;50.828;4.718;2022-08-01T02:38:17;19.40;99.90
18240;DHT22;9244;50.828;4.718;2022-08-01T02:40:46;19.40;99.90
18240;DHT22;9244;50.828;4.718;2022-08-01T02:43:13;19.40;99.90
18240;DHT22;9244;50.828;4.718;2022-08-01T02:45:43;19.50;99.90
18240;DHT22;9244;50.828;4.718;2022-08-01T02:48:13;19.40;99.90
18240;DHT22;9244;50.828;4.718;2022-08-01T02:50:42;19.40;99.90
18240;DHT22;9244;50.828;4.718;2022-08-01T02:53:11;19.40;99.90
18240;DHT22;9244;50.828;4.718;2022-08-01T02:55:42;19.40;99.90
18240;DHT22;9244;50.828;4.718;2022-08-01T02:58:10;19.40;99.90
18240;DHT22;9244;50.828;4.718;2022-08-01T03:00:38;19.30;99.90
18240;DHT22;9244;50.828;4.718;2022-08-01T03:03:06;19.30;99.90
18240;DHT22;9244;50.828;4.718;2022-08-01T03:05:35;19.30;99.90
18240;DHT22;9244;50.828;4.718;2022-08-01T03:08:02;19.40;99.90
18240;DHT22;9244;50.828;4.718;2022-08-01T03:10:28;19.30;99.90
18240;DHT22;9244;50.828;4.718;2022-08-01T03:12:55;19.20;99.90
18240;DHT22;9244;50.828;4.718;2022-08-01T03:15:23;19.40;99.90
18240;DHT22;9244;50.828;4.718;2022-08-01T03:17:51;19.40;99.90
18240;DHT22;9244;50.828;4.718;2022-08-01T03:20:18;19.40;99.90
18240;DHT22;9244;50.828;4.718;2022-08-01T03:22:47;19.40;99.90
18240;DHT22;9244;50.828;4.718;2022-08-01T03:25:15;19.30;99.90
18240;DHT22;9244;50.828;4.718;2022-08-01T03:27:43;19.40;99.90
18240;DHT22;9244;50.828;4.718;2022-08-01T03:30:09;19.40;99.90
18240;DHT22;9244;50.828;4.718;2022-08-01T03:32:36;19.40;99.90
18240;DHT22;9244;50.828;4.718;2022-08-01T03:35:02;19.40;99.90
18240;DHT22;9244;50.828;4.718;2022-08-01T03:37:33;19.30;99.90
18240;DHT22;9244;50.828;4.718;2022-08-01T03:40:37;19.30;99.90
18240;DHT22;9244;50.828;4.718;2022-08-01T03:42:59;19.20;99.90
18240;DHT22;9244;50.828;4.718;2022-08-01T03:45:34;19.20;99.90
18240;DHT22;9244;50.828;4.718;2022-08-01T03:48:03;19.10;99.90
18240;DHT22;9244;50.828;4.718;2022-08-01T03:50:31;19.10;99.90
18240;DHT22;9244;50.828;4.718;2022-08-01T03:53:00;19.20;99.90
18240;DHT22;9244;50.828;4.718;2022-08-01T03:55:28;19.10;99.90
18240;DHT22;9244;50.828;4.718;2022-08-01T03:57:55;19.10;99.90
18240;DHT22;9244;50.828;4.718;2022-08-01T04:00:23;19.10;99.90
18240;DHT22;9244;50.828;4.718;2022-08-01T04:02:50;19.10;99.90
18240;DHT22;9244;50.828;4.718;2022-08-01T04:05:16;19.10;99.90
18240;DHT22;9244;50.828;4.718;2022-08-01T04:07:47;19.10;99.90
18240;DHT22;9244;50.828;4.718;2022-08-01T04:10:13;19.00;99.90
18240;DHT22;9244;50.828;4.718;2022-08-01T04:12:39;19.00;99.90
18240;DHT22;9244;50.828;4.718;2022-08-01T04:15:05;19.00;99.90
18240;DHT22;9244;50.828;4.718;2022-08-01T04:17:31;19.10;99.90
18240;DHT22;9244;50.828;4.718;2022-08-01T04:19:57;19.10;99.90
18240;DHT22;9244;50.828;4.718;2022-08-01T04:22:22;19.10;99.90
18240;DHT22;9244;50.828;4.718;2022-08-01T04:24:51;19.00;99.90
18240;DHT22;9244;50.828;4.718;2022-08-01T04:27:23;18.90;99.90
18240;DHT22;9244;50.828;4.718;2022-08-01T04:29:51;18.80;99.90
18240;DHT22;9244;50.828;4.718;2022-08-01T04:32:20;18.70;99.90
18240;DHT22;9244;50.828;4.718;2022-08-01T04:34:47;18.70;99.90
18240;DHT22;9244;50.828;4.718;2022-08-01T04:37:13;18.70;99.90
18240;DHT22;9244;50.828;4.718;2022-08-01T04:39:42;18.60;99.90
18240;DHT22;9244;50.828;4.718;2022-08-01T04:42:11;18.50;99.90
18240;DHT22;9244;50.828;4.718;2022-08-01T04:44:37;18.50;99.90
18240;DHT22;9244;50.828;4.718;2022-08-01T04:47:03;18.50;99.90
18240;DHT22;9244;50.828;4.718;2022-08-01T04:49:37;18.50;99.90
18240;DHT22;9244;50.828;4.718;2022-08-01T04:52:03;18.50;99.90
18240;DHT22;9244;50.828;4.718;2022-08-01T04:54:30;18.50;99.90
18240;DHT22;9244;50.828;4.718;2022-08-01T04:56:59;18.50;99.90
18240;DHT22;9244;50.828;4.718;2022-08-01T04:59:29;18.50;99.90
18240;DHT22;9244;50.828;4.718;2022-08-01T05:02:11;18.60;99.90
18240;DHT22;9244;50.828;4.718;2022-08-01T05:04:38;18.50;99.90
18240;DHT22;9244;50.828;4.718;2022-08-01T05:07:05;18.60;99.90
18240;DHT22;9244;50.828;4.718;2022-08-01T05:09:32;18.50;99.90
18240;DHT22;9244;50.828;4.718;2022-08-01T05:11:59;18.50;99.90
18240;DHT22;9244;50.828;4.718;2022-08-01T05:14:26;18.50;99.90
18240;DHT22;9244;50.828;4.718;2022-08-01T05:16:52;18.50;99.90
18240;DHT22;9244;50.828;4.718;2022-08-01T05:19:18;18.50;99.90
18240;DHT22;9244;50.828;4.718;2022-08-01T05:21:44;18.50;99.90
18240;DHT22;9244;50.828;4.718;2022-08-01T05:24:09;18.60;99.90
18240;DHT22;9244;50.828;4.718;2022-08-01T05:26:35;18.50;99.90
18240;DHT22;9244;50.828;4.718;2022-08-01T05:29:01;18.50;99.90
18240;DHT22;9244;50.828;4.718;2022-08-01T05:31:27;18.50;99.90
18240;DHT22;9244;50.828;4.718;2022-08-01T05:33:53;18.60;99.90
18240;DHT22;9244;50.828;4.718;2022-08-01T05:36:18;18.60;99.90
18240;DHT22;9244;50.828;4.718;2022-08-01T05:38:44;18.60;99.90
18240;DHT22;9244;50.828;4.718;2022-08-01T05:41:10;18.70;99.90
18240;DHT22;9244;50.828;4.718;2022-08-01T05:43:36;18.70;99.90
18240;DHT22;9244;50.828;4.718;2022-08-01T05:46:02;18.70;99.90
18240;DHT22;9244;50.828;4.718;2022-08-01T05:48:28;18.70;99.90
18240;DHT22;9244;50.828;4.718;2022-08-01T05:50:54;18.60;99.90
18240;DHT22;9244;50.828;4.718;2022-08-01T05:53:20;18.70;99.90
18240;DHT22;9244;50.828;4.718;2022-08-01T05:55:45;18.80;99.90
18240;DHT22;9244;50.828;4.718;2022-08-01T05:58:11;18.80;99.90
18240;DHT22;9244;50.828;4.718;2022-08-01T06:00:37;18.70;99.90
18240;DHT22;9244;50.828;4.718;2022-08-01T06:03:02;18.70;99.90
18240;DHT22;9244;50.828;4.718;2022-08-01T06:05:28;18.70;99.90
18240;DHT22;9244;50.828;4.718;2022-08-01T06:07:54;18.70;99.90
18240;DHT22;9244;50.828;4.718;2022-08-01T06:10:19;18.80;99.90
18240;DHT22;9244;50.828;4.718;2022-08-01T06:12:45;18.90;99.90
18240;DHT22;9244;50.828;4.718;2022-08-01T06:15:11;19.00;99.90
18240;DHT22;9244;50.828;4.718;2022-08-01T06:17:37;19.20;99.90
18240;DHT22;9244;50.828;4.718;2022-08-01T06:20:03;19.30;99.90
18240;DHT22;9244;50.828;4.718;2022-08-01T06:22:29;19.60;99.90
18240;DHT22;9244;50.828;4.718;2022-08-01T06:24:55;19.60;99.90
18240;DHT22;9244;50.828;4.718;2022-08-01T06:27:21;19.70;99.90
18240;DHT22;9244;50.828;4.718;2022-08-01T06:29:47;19.80;99.90
18240;DHT22;9244;50.828;4.718;2022-08-01T06:32:12;19.60;99.90
18240;DHT22;9244;50.828;4.718;2022-08-01T06:34:38;19.60;99.90
18240;DHT22;9244;50.828;4.718;2022-08-01T06:37:04;19.70;99.90
18240;DHT22;9244;50.828;4.718;2022-08-01T06:39:29;19.60;99.90
18240;DHT22;9244;50.828;4.718;2022-08-01T06:41:55;19.60;99.90
18240;DHT22;9244;50.828;4.718;2022-08-01T06:44:20;19.60;99.90
18240;DHT22;9244;50.828;4.718;2022-08-01T06:46:46;19.50;99.90
18240;DHT22;9244;50.828;4.718;2022-08-01T06:49:11;19.40;99.90
18240;DHT22;9244;50.828;4.718;2022-08-01T06:51:37;19.60;99.90
18240;DHT22;9244;50.828;4.718;2022-08-01T06:54:03;19.90;99.90
18240;DHT22;9244;50.828;4.718;2022-08-01T06:56:28;20.00;99.90
18240;DHT22;9244;50.828;4.718;2022-08-01T06:58:54;20.20;99.90
18240;DHT22;9244;50.828;4.718;2022-08-01T07:01:26;20.40;99.90
18240;DHT22;9244;50.828;4.718;2022-08-01T07:03:52;20.50;99.90
18240;DHT22;9244;50.828;4.718;2022-08-01T07:06:18;20.60;99.90
18240;DHT22;9244;50.828;4.718;2022-08-01T07:08:43;20.40;99.90
18240;DHT22;9244;50.828;4.718;2022-08-01T07:11:09;20.50;99.90
18240;DHT22;9244;50.828;4.718;2022-08-01T07:13:34;20.50;99.90
18240;DHT22;9244;50.828;4.718;2022-08-01T07:16:00;20.40;99.90
18240;DHT22;9244;50.828;4.718;2022-08-01T07:18:26;20.40;99.90
18240;DHT22;9244;50.828;4.718;2022-08-01T07:20:51;20.70;99.90
18240;DHT22;9244;50.828;4.718;2022-08-01T07:23:17;21.00;99.90
18240;DHT22;9244;50.828;4.718;2022-08-01T07:25:42;21.10;99.90
18240;DHT22;9244;50.828;4.718;2022-08-01T07:28:08;20.80;99.90
18240;DHT22;9244;50.828;4.718;2022-08-01T07:30:34;20.90;99.90
18240;DHT22;9244;50.828;4.718;2022-08-01T07:33:01;21.10;99.90
18240;DHT22;9244;50.828;4.718;2022-08-01T07:35:26;21.00;99.90
18240;DHT22;9244;50.828;4.718;2022-08-01T07:37:52;21.30;99.90
18240;DHT22;9244;50.828;4.718;2022-08-01T07:40:19;21.30;99.90
18240;DHT22;9244;50.828;4.718;2022-08-01T07:42:44;21.30;99.90
18240;DHT22;9244;50.828;4.718;2022-08-01T07:45:11;21.60;99.90
18240;DHT22;9244;50.828;4.718;2022-08-01T07:47:37;21.90;99.90
18240;DHT22;9244;50.828;4.718;2022-08-01T07:50:04;21.80;99.90
18240;DHT22;9244;50.828;4.718;2022-08-01T07:52:30;21.50;99.90
18240;DHT22;9244;50.828;4.718;2022-08-01T07:54:56;21.30;99.90
18240;DHT22;9244;50.828;4.718;2022-08-01T07:57:23;21.00;99.90
18240;DHT22;9244;50.828;4.718;2022-08-01T07:59:49;21.10;99.90
18240;DHT22;9244;50.828;4.718;2022-08-01T08:02:15;21.20;99.90
18240;DHT22;9244;50.828;4.718;2022-08-01T08:04:41;21.00;99.90
18240;DHT22;9244;50.828;4.718;2022-08-01T08:07:07;20.90;99.90
18240;DHT22;9244;50.828;4.718;2022-08-01T08:09:33;21.30;99.90
18240;DHT22;9244;50.828;4.718;2022-08-01T08:11:58;21.20;99.90
18240;DHT22;9244;50.828;4.718;2022-08-01T08:14:24;21.20;99.90
18240;DHT22;9244;50.828;4.718;2022-08-01T08:16:51;21.30;99.90
18240;DHT22;9244;50.828;4.718;2022-08-01T08:19:17;21.30;99.90
18240;DHT22;9244;50.828;4.718;2022-08-01T08:21:42;21.50;99.90
18240;DHT22;9244;50.828;4.718;2022-08-01T08:24:09;21.60;99.90
18240;DHT22;9244;50.828;4.718;2022-08-01T08:26:55;21.80;99.90
18240;DHT22;9244;50.828;4.718;2022-08-01T08:29:22;21.90;99.90
18240;DHT22;9244;50.828;4.718;2022-08-01T08:31:48;22.40;99.90
18240;DHT22;9244;50.828;4.718;2022-08-01T08:34:14;22.90;99.90
18240;DHT22;9244;50.828;4.718;2022-08-01T08:36:40;23.10;99.90
18240;DHT22;9244;50.828;4.718;2022-08-01T08:39:06;23.20;99.90
18240;DHT22;9244;50.828;4.718;2022-08-01T08:41:32;23.50;99.90
18240;DHT22;9244;50.828;4.718;2022-08-01T08:44:06;23.70;99.90
18240;DHT22;9244;50.828;4.718;2022-08-01T08:46:32;23.80;99.90
18240;DHT22;9244;50.828;4.718;2022-08-01T08:49:00;24.30;99.90
18240;DHT22;9244;50.828;4.718;2022-08-01T08:51:26;24.10;99.90
18240;DHT22;9244;50.828;4.718;2022-08-01T08:53:56;23.80;99.90
18240;DHT22;9244;50.828;4.718;2022-08-01T08:56:23;23.40;99.90
18240;DHT22;9244;50.828;4.718;2022-08-01T08:58:50;23.50;99.90
18240;DHT22;9244;50.828;4.718;2022-08-01T09:01:17;24.00;99.90
18240;DHT22;9244;50.828;4.718;2022-08-01T09:03:43;23.80;99.90
18240;DHT22;9244;50.828;4.718;2022-08-01T09:06:10;23.90;99.90
18240;DHT22;9244;50.828;4.718;2022-08-01T09:08:36;23.90;99.90
18240;DHT22;9244;50.828;4.718;2022-08-01T09:11:02;23.70;99.90
18240;DHT22;9244;50.828;4.718;2022-08-01T09:13:28;23.40;99.90
18240;DHT22;9244;50.828;4.718;2022-08-01T09:15:54;23.40;99.90
18240;DHT22;9244;50.828;4.718;2022-08-01T09:18:35;23.50;99.90
18240;DHT22;9244;50.828;4.718;2022-08-01T09:21:19;24.20;99.90
18240;DHT22;9244;50.828;4.718;2022-08-01T09:23:51;24.40;99.90
18240;DHT22;9244;50.828;4.718;2022-08-01T09:26:19;24.20;99.90
18240;DHT22;9244;50.828;4.718;2022-08-01T09:28:46;24.30;99.90
18240;DHT22;9244;50.828;4.718;2022-08-01T09:31:14;24.20;99.90
18240;DHT22;9244;50.828;4.718;2022-08-01T09:33:55;23.80;99.90
18240;DHT22;9244;50.828;4.718;2022-08-01T09:36:25;23.60;99.90
18240;DHT22;9244;50.828;4.718;2022-08-01T09:38:53;23.40;99.90
18240;DHT22;9244;50.828;4.718;2022-08-01T09:41:32;23.30;99.90
18240;DHT22;9244;50.828;4.718;2022-08-01T09:43:57;23.40;99.90
18240;DHT22;9244;50.828;4.718;2022-08-01T09:46:24;23.40;99.90
18240;DHT22;9244;50.828;4.718;2022-08-01T09:49:02;23.10;99.90
18240;DHT22;9244;50.828;4.718;2022-08-01T09:51:30;23.20;99.90
18240;DHT22;9244;50.828;4.718;2022-08-01T09:53:56;23.20;99.90
18240;DHT22;9244;50.828;4.718;2022-08-01T09:56:22;23.20;99.90
18240;DHT22;9244;50.828;4.718;2022-08-01T09:58:56;23.40;99.90
18240;DHT22;9244;50.828;4.718;2022-08-01T10:01:22;23.80;99.90
18240;DHT22;9244;50.828;4.718;2022-08-01T10:04:07;23.80;99.90
18240;DHT22;9244;50.828;4.718;2022-08-01T10:06:32;24.40;99.90
18240;DHT22;9244;50.828;4.718;2022-08-01T10:08:58;24.50;99.90
18240;DHT22;9244;50.828;4.718;2022-08-01T10:11:24;24.70;99.90
18240;DHT22;9244;50.828;4.718;2022-08-01T10:13:51;25.00;99.90
18240;DHT22;9244;50.828;4.718;2022-08-01T10:16:17;25.10;99.90
18240;DHT22;9244;50.828;4.718;2022-08-01T10:18:44;24.80;99.90
18240;DHT22;9244;50.828;4.718;2022-08-01T10:21:11;24.60;99.90
18240;DHT22;9244;50.828;4.718;2022-08-01T10:23:38;24.70;99.90
18240;DHT22;9244;50.828;4.718;2022-08-01T10:26:05;24.10;99.90
18240;DHT22;9244;50.828;4.718;2022-08-01T10:28:35;24.20;99.90
18240;DHT22;9244;50.828;4.718;2022-08-01T10:31:01;24.30;99.90
18240;DHT22;9244;50.828;4.718;2022-08-01T10:33:29;24.30;99.90
18240;DHT22;9244;50.828;4.718;2022-08-01T10:35:54;24.30;99.90
18240;DHT22;9244;50.828;4.718;2022-08-01T10:38:20;24.40;99.90
18240;DHT22;9244;50.828;4.718;2022-08-01T10:40:46;24.40;99.90
18240;DHT22;9244;50.828;4.718;2022-08-01T10:43:16;24.40;99.90
18240;DHT22;9244;50.828;4.718;2022-08-01T10:45:42;24.40;99.90
18240;DHT22;9244;50.828;4.718;2022-08-01T10:50:54;24.50;99.90
18240;DHT22;9244;50.828;4.718;2022-08-01T10:53:24;25.00;99.90
18240;DHT22;9244;50.828;4.718;2022-08-01T10:58:28;25.20;99.90
18240;DHT22;9244;50.828;4.718;2022-08-01T11:04:10;25.30;99.90
18240;DHT22;9244;50.828;4.718;2022-08-01T11:06:41;25.60;99.90
18240;DHT22;9244;50.828;4.718;2022-08-01T11:12:01;26.00;99.90
18240;DHT22;9244;50.828;4.718;2022-08-01T11:14:29;25.60;99.90
18240;DHT22;9244;50.828;4.718;2022-08-01T11:16:55;25.80;99.90
18240;DHT22;9244;50.828;4.718;2022-08-01T11:19:21;26.00;99.90
18240;DHT22;9244;50.828;4.718;2022-08-01T11:27:19;25.30;99.90
18240;DHT22;9244;50.828;4.718;2022-08-01T11:30:23;25.60;99.90
18240;DHT22;9244;50.828;4.718;2022-08-01T11:35:17;26.20;99.90
18240;DHT22;9244;50.828;4.718;2022-08-01T11:37:43;26.50;99.90
18240;DHT22;9244;50.828;4.718;2022-08-01T11:42:46;26.50;99.90
18240;DHT22;9244;50.828;4.718;2022-08-01T11:45:12;26.90;99.90
18240;DHT22;9244;50.828;4.718;2022-08-01T11:52:59;26.90;99.90
18240;DHT22;9244;50.828;4.718;2022-08-01T11:55:26;27.60;99.90
18240;DHT22;9244;50.828;4.718;2022-08-01T11:57:59;27.50;99.90
18240;DHT22;9244;50.828;4.718;2022-08-01T12:00:25;27.60;99.90
18240;DHT22;9244;50.828;4.718;2022-08-01T12:02:59;27.70;99.90
18240;DHT22;9244;50.828;4.718;2022-08-01T12:05:27;27.50;99.90
18240;DHT22;9244;50.828;4.718;2022-08-01T12:07:54;27.30;99.90
18240;DHT22;9244;50.828;4.718;2022-08-01T12:10:25;27.60;99.90
18240;DHT22;9244;50.828;4.718;2022-08-01T12:12:55;27.40;99.90
18240;DHT22;9244;50.828;4.718;2022-08-01T12:15:24;27.70;99.90
18240;DHT22;9244;50.828;4.718;2022-08-01T12:17:55;27.90;99.90
18240;DHT22;9244;50.828;4.718;2022-08-01T12:20:22;28.10;99.90
18240;DHT22;9244;50.828;4.718;2022-08-01T12:22:52;27.90;99.90
18240;DHT22;9244;50.828;4.718;2022-08-01T12:25:18;27.70;99.90
18240;DHT22;9244;50.828;4.718;2022-08-01T12:27:45;27.70;99.90
18240;DHT22;9244;50.828;4.718;2022-08-01T12:30:14;27.50;99.90
18240;DHT22;9244;50.828;4.718;2022-08-01T12:32:41;27.30;99.90
18240;DHT22;9244;50.828;4.718;2022-08-01T12:35:15;27.20;99.90
18240;DHT22;9244;50.828;4.718;2022-08-01T12:37:47;27.10;99.90
18240;DHT22;9244;50.828;4.718;2022-08-01T12:40:17;27.00;99.90
18240;DHT22;9244;50.828;4.718;2022-08-01T12:42:45;27.00;99.90
18240;DHT22;9244;50.828;4.718;2022-08-01T12:45:15;27.10;99.90
18240;DHT22;9244;50.828;4.718;2022-08-01T12:47:41;26.90;99.90
18240;DHT22;9244;50.828;4.718;2022-08-01T12:50:12;26.90;99.90
18240;DHT22;9244;50.828;4.718;2022-08-01T12:52:38;27.20;99.90
18240;DHT22;9244;50.828;4.718;2022-08-01T12:55:10;27.10;99.90
18240;DHT22;9244;50.828;4.718;2022-08-01T12:57:40;26.90;99.90
18240;DHT22;9244;50.828;4.718;2022-08-01T13:00:18;26.60;99.90
18240;DHT22;9244;50.828;4.718;2022-08-01T13:02:48;27.10;99.90
18240;DHT22;9244;50.828;4.718;2022-08-01T13:05:15;27.60;99.90
18240;DHT22;9244;50.828;4.718;2022-08-01T13:07:49;27.50;99.90
18240;DHT22;9244;50.828;4.718;2022-08-01T13:10:28;27.30;99.90
18240;DHT22;9244;50.828;4.718;2022-08-01T13:12:56;27.30;99.90
18240;DHT22;9244;50.828;4.718;2022-08-01T13:15:30;27.90;99.90
18240;DHT22;9244;50.828;4.718;2022-08-01T13:17:57;27.90;99.90
18240;DHT22;9244;50.828;4.718;2022-08-01T13:20:32;28.00;99.90
18240;DHT22;9244;50.828;4.718;2022-08-01T13:23:16;28.00;99.90
18240;DHT22;9244;50.828;4.718;2022-08-01T13:25:55;27.60;99.90
18240;DHT22;9244;50.828;4.718;2022-08-01T13:28:26;27.60;99.90
18240;DHT22;9244;50.828;4.718;2022-08-01T13:31:04;27.90;99.90
18240;DHT22;9244;50.828;4.718;2022-08-01T13:33:44;28.40;99.90
18240;DHT22;9244;50.828;4.718;2022-08-01T13:36:10;28.50;99.90
18240;DHT22;9244;50.828;4.718;2022-08-01T13:38:36;28.50;99.90
18240;DHT22;9244;50.828;4.718;2022-08-01T13:41:21;28.60;99.90
18240;DHT22;9244;50.828;4.718;2022-08-01T13:43:46;28.30;99.90
18240;DHT22;9244;50.828;4.718;2022-08-01T13:46:12;28.00;99.90
18240;DHT22;9244;50.828;4.718;2022-08-01T13:48:38;28.10;99.90
18240;DHT22;9244;50.828;4.718;2022-08-01T13:51:03;27.80;99.90
18240;DHT22;9244;50.828;4.718;2022-08-01T13:53:29;27.70;99.90
18240;DHT22;9244;50.828;4.718;2022-08-01T13:55:55;28.10;99.90
18240;DHT22;9244;50.828;4.718;2022-08-01T13:58:21;28.20;99.90
18240;DHT22;9244;50.828;4.718;2022-08-01T14:00:47;28.10;99.90
18240;DHT22;9244;50.828;4.718;2022-08-01T14:03:13;28.40;99.90
18240;DHT22;9244;50.828;4.718;2022-08-01T14:05:39;28.10;99.90
18240;DHT22;9244;50.828;4.718;2022-08-01T14:08:05;27.70;99.90
18240;DHT22;9244;50.828;4.718;2022-08-01T14:10:31;27.30;99.90
18240;DHT22;9244;50.828;4.718;2022-08-01T14:12:57;26.70;99.90
18240;DHT22;9244;50.828;4.718;2022-08-01T14:15:23;26.40;99.90
18240;DHT22;9244;50.828;4.718;2022-08-01T14:17:49;26.20;99.90
18240;DHT22;9244;50.828;4.718;2022-08-01T14:20:15;26.10;99.90
18240;DHT22;9244;50.828;4.718;2022-08-01T14:22:48;26.50;99.90
18240;DHT22;9244;50.828;4.718;2022-08-01T14:25:14;27.10;99.90
18240;DHT22;9244;50.828;4.718;2022-08-01T14:27:39;27.50;99.90
18240;DHT22;9244;50.828;4.718;2022-08-01T14:30:07;27.70;99.90
18240;DHT22;9244;50.828;4.718;2022-08-01T14:32:34;28.00;99.90
18240;DHT22;9244;50.828;4.718;2022-08-01T14:35:01;28.10;99.90
18240;DHT22;9244;50.828;4.718;2022-08-01T14:37:26;28.40;99.90
18240;DHT22;9244;50.828;4.718;2022-08-01T14:39:53;28.30;99.90
18240;DHT22;9244;50.828;4.718;2022-08-01T14:42:19;28.20;99.90
18240;DHT22;9244;50.828;4.718;2022-08-01T14:44:45;28.10;99.90
18240;DHT22;9244;50.828;4.718;2022-08-01T14:47:10;28.10;99.90
18240;DHT22;9244;50.828;4.718;2022-08-01T14:49:36;28.30;99.90
18240;DHT22;9244;50.828;4.718;2022-08-01T14:52:02;28.50;99.90
18240;DHT22;9244;50.828;4.718;2022-08-01T14:54:27;28.30;99.90
18240;DHT22;9244;50.828;4.718;2022-08-01T14:56:53;28.40;99.80
18240;DHT22;9244;50.828;4.718;2022-08-01T14:59:19;28.50;99.90
18240;DHT22;9244;50.828;4.718;2022-08-01T15:01:45;28.20;99.00
18240;DHT22;9244;50.828;4.718;2022-08-01T15:04:10;28.00;99.90
18240;DHT22;9244;50.828;4.718;2022-08-01T15:06:36;28.00;99.90
18240;DHT22;9244;50.828;4.718;2022-08-01T15:09:02;28.10;99.90
18240;DHT22;9244;50.828;4.718;2022-08-01T15:11:28;28.30;99.90
18240;DHT22;9244;50.828;4.718;2022-08-01T15:13:54;28.10;99.90
18240;DHT22;9244;50.828;4.718;2022-08-01T15:16:38;27.90;99.90
18240;DHT22;9244;50.828;4.718;2022-08-01T15:19:04;27.70;99.90
18240;DHT22;9244;50.828;4.718;2022-08-01T15:21:29;27.60;99.90
18240;DHT22;9244;50.828;4.718;2022-08-01T15:23:55;27.50;99.90
18240;DHT22;9244;50.828;4.718;2022-08-01T15:26:21;27.60;99.90
18240;DHT22;9244;50.828;4.718;2022-08-01T15:28:46;27.50;99.90
18240;DHT22;9244;50.828;4.718;2022-08-01T15:31:12;27.50;99.90
18240;DHT22;9244;50.828;4.718;2022-08-01T15:33:38;27.70;99.90
18240;DHT22;9244;50.828;4.718;2022-08-01T15:36:04;27.70;99.90
18240;DHT22;9244;50.828;4.718;2022-08-01T15:38:32;27.50;99.90
18240;DHT22;9244;50.828;4.718;2022-08-01T15:40:58;27.50;99.90
18240;DHT22;9244;50.828;4.718;2022-08-01T15:43:24;27.50;99.90
18240;DHT22;9244;50.828;4.718;2022-08-01T15:45:49;27.50;99.90
18240;DHT22;9244;50.828;4.718;2022-08-01T15:48:16;27.20;99.90
18240;DHT22;9244;50.828;4.718;2022-08-01T15:50:42;27.50;99.90
18240;DHT22;9244;50.828;4.718;2022-08-01T15:53:07;27.20;99.90
18240;DHT22;9244;50.828;4.718;2022-08-01T15:55:37;26.80;99.90
18240;DHT22;9244;50.828;4.718;2022-08-01T15:58:03;26.60;99.90
18240;DHT22;9244;50.828;4.718;2022-08-01T16:00:29;26.70;99.90
18240;DHT22;9244;50.828;4.718;2022-08-01T16:02:55;26.70;99.90
18240;DHT22;9244;50.828;4.718;2022-08-01T16:05:22;26.80;99.90
18240;DHT22;9244;50.828;4.718;2022-08-01T16:07:48;26.70;99.90
18240;DHT22;9244;50.828;4.718;2022-08-01T16:10:14;26.60;99.90
18240;DHT22;9244;50.828;4.718;2022-08-01T16:12:40;26.60;99.90
18240;DHT22;9244;50.828;4.718;2022-08-01T16:15:06;26.60;99.90
18240;DHT22;9244;50.828;4.718;2022-08-01T16:17:31;26.60;99.90
18240;DHT22;9244;50.828;4.718;2022-08-01T16:19:57;26.50;99.90
18240;DHT22;9244;50.828;4.718;2022-08-01T16:22:23;26.30;99.90
18240;DHT22;9244;50.828;4.718;2022-08-01T16:24:49;26.20;99.90
18240;DHT22;9244;50.828;4.718;2022-08-01T16:27:15;26.20;99.90
18240;DHT22;9244;50.828;4.718;2022-08-01T16:29:40;26.00;99.90
18240;DHT22;9244;50.828;4.718;2022-08-01T16:32:06;25.90;99.90